createdAt,value
2017-08-04T00:00:31.048Z,59.6
2017-08-04T00:01:32.445Z,59.2
2017-08-04T00:03:14.822Z,59.3
2017-08-04T00:04:16.199Z,59.3
2017-08-04T00:05:17.590Z,59.1
2017-08-04T00:06:18.969Z,59.3
2017-08-04T00:07:20.351Z,59.7
2017-08-04T00:08:21.732Z,59.3
2017-08-04T00:09:23.118Z,59.7
2017-08-04T00:10:24.509Z,60.3
2017-08-04T00:11:25.883Z,60.0
2017-08-04T00:12:27.260Z,59.9
2017-08-04T00:13:28.639Z,60.4
2017-08-04T00:15:11.006Z,60.6
2017-08-04T00:16:12.392Z,60.2
2017-08-04T00:17:13.771Z,60.1
2017-08-04T00:18:15.144Z,60.3
2017-08-04T00:19:16.528Z,60.0
2017-08-04T00:20:17.909Z,60.4
2017-08-04T00:21:19.291Z,60.3
2017-08-04T00:22:20.672Z,60.4
2017-08-04T00:23:22.051Z,61.0
2017-08-04T00:24:23.440Z,60.3
2017-08-04T00:26:05.825Z,60.6
2017-08-04T00:27:07.214Z,60.7
2017-08-04T00:28:08.593Z,60.1
2017-08-04T00:29:09.969Z,60.3
2017-08-04T00:30:11.356Z,60.6
2017-08-04T00:31:12.737Z,61.0
2017-08-04T00:32:14.127Z,60.3
2017-08-04T00:33:15.506Z,60.7
2017-08-04T00:34:16.887Z,61.3
2017-08-04T00:35:18.341Z,61.2
2017-08-04T00:36:19.786Z,60.7
2017-08-04T00:37:21.242Z,60.9
2017-08-04T00:38:22.715Z,60.9
2017-08-04T00:39:24.101Z,60.8
2017-08-04T00:40:25.554Z,61.3
2017-08-04T00:41:26.938Z,60.6
2017-08-04T00:42:28.326Z,60.5
2017-08-04T00:43:29.706Z,60.6
2017-08-04T00:45:12.087Z,60.2
2017-08-04T00:46:13.479Z,60.6
2017-08-04T00:47:14.860Z,60.5
2017-08-04T00:48:16.237Z,60.7
2017-08-04T00:49:17.618Z,60.2
2017-08-04T00:50:19.002Z,60.2
2017-08-04T00:51:20.381Z,60.4
2017-08-04T00:53:02.755Z,61.1
2017-08-04T00:54:04.138Z,59.7
2017-08-04T00:55:05.519Z,60.2
2017-08-04T00:56:06.901Z,60.4
2017-08-04T00:57:08.291Z,60.2
2017-08-04T00:58:09.675Z,60.4
2017-08-04T00:59:11.053Z,60.1
2017-08-04T01:00:12.438Z,60.6
2017-08-04T01:01:13.829Z,60.5
2017-08-04T01:02:15.208Z,60.5
2017-08-04T01:03:16.583Z,60.1
2017-08-04T01:04:17.963Z,60.3
2017-08-04T01:05:19.342Z,60.3
2017-08-04T01:06:20.721Z,60.3
2017-08-04T01:07:22.105Z,60.7
2017-08-04T01:08:23.484Z,61.1
2017-08-04T01:09:24.865Z,60.5
2017-08-04T01:10:26.242Z,60.2
2017-08-04T01:11:27.625Z,61.1
2017-08-04T01:12:29.006Z,60.6
2017-08-04T01:13:30.391Z,60.5
2017-08-04T01:14:31.790Z,60.8
2017-08-04T01:15:33.168Z,60.7
2017-08-04T01:16:34.546Z,60.9
2017-08-04T01:17:35.927Z,61.0
2017-08-04T01:18:37.304Z,61.9
2017-08-04T01:19:38.691Z,61.4
2017-08-04T01:20:40.073Z,61.3
2017-08-04T01:21:41.456Z,61.1
2017-08-04T01:22:42.839Z,61.5
2017-08-04T01:23:44.218Z,61.6
2017-08-04T01:24:45.600Z,61.6
2017-08-04T01:25:46.984Z,62.3
2017-08-04T01:26:48.382Z,62.2
2017-08-04T01:27:49.757Z,61.8
2017-08-04T01:28:51.142Z,62.1
2017-08-04T01:30:33.522Z,62.6
2017-08-04T01:31:34.901Z,62.2
2017-08-04T01:32:36.276Z,62.8
2017-08-04T01:33:37.662Z,62.7
2017-08-04T01:34:39.044Z,63.0
2017-08-04T01:35:40.426Z,62.2
2017-08-04T01:36:41.818Z,62.8
2017-08-04T01:37:43.203Z,62.4
2017-08-04T01:38:44.604Z,62.2
2017-08-04T01:39:45.979Z,62.1
2017-08-04T01:40:47.343Z,62.8
2017-08-04T01:41:48.725Z,62.7
2017-08-04T01:42:50.110Z,62.6
2017-08-04T01:43:51.487Z,62.3
2017-08-04T01:44:52.919Z,62.7
2017-08-04T01:45:55.041Z,62.2
2017-08-04T01:47:37.427Z,62.3
2017-08-04T01:48:38.800Z,62.6
2017-08-04T01:49:40.179Z,63.0
2017-08-04T01:50:41.558Z,62.8
2017-08-04T01:51:43.220Z,63.1
2017-08-04T01:52:44.606Z,63.1
2017-08-04T01:54:26.972Z,63.4
2017-08-04T01:55:28.354Z,62.8
2017-08-04T01:56:29.740Z,63.7
2017-08-04T01:57:31.116Z,63.7
2017-08-04T01:58:32.491Z,63.7
2017-08-04T02:00:14.875Z,63.4
2017-08-04T02:01:56.234Z,63.5
2017-08-04T02:02:57.613Z,63.6
2017-08-04T02:04:20.615Z,63.7
2017-08-04T02:05:21.989Z,63.9
2017-08-04T02:06:23.386Z,64.1
2017-08-04T02:07:24.746Z,63.9
2017-08-04T02:08:26.133Z,64.1
2017-08-04T02:09:27.511Z,64.5
2017-08-04T02:10:28.900Z,64.3
2017-08-04T02:11:30.288Z,64.4
2017-08-04T02:12:31.674Z,64.8
2017-08-04T02:13:33.113Z,64.6
2017-08-04T02:14:34.459Z,64.8
2017-08-04T02:15:35.877Z,64.3
2017-08-04T02:16:37.253Z,64.3
2017-08-04T02:17:38.646Z,64.5
2017-08-04T02:18:40.034Z,64.5
2017-08-04T02:19:41.460Z,65.1
2017-08-04T02:20:42.856Z,65.1
2017-08-04T02:21:44.230Z,64.8
2017-08-04T02:22:45.661Z,64.8
2017-08-04T02:23:47.098Z,64.7
2017-08-04T02:24:48.527Z,64.5
2017-08-04T02:25:49.915Z,64.8
2017-08-04T02:26:51.289Z,64.3
2017-08-04T02:27:53.273Z,64.8
2017-08-04T02:28:54.713Z,64.8
2017-08-04T02:29:56.128Z,65.2
2017-08-04T02:30:57.522Z,65.2
2017-08-04T02:31:58.914Z,65.0
2017-08-04T02:33:00.297Z,65.2
2017-08-04T02:34:01.778Z,65.1
2017-08-04T02:35:44.183Z,64.8
2017-08-04T02:36:45.544Z,65.1
2017-08-04T02:37:46.929Z,64.5
2017-08-04T02:38:48.305Z,64.6
2017-08-04T02:39:49.704Z,64.7
2017-08-04T02:40:51.075Z,64.6
2017-08-04T02:41:52.460Z,64.0
2017-08-04T02:42:53.882Z,64.7
2017-08-04T02:43:55.248Z,64.6
2017-08-04T02:44:56.632Z,64.4
2017-08-04T02:45:58.034Z,64.2
2017-08-04T02:46:59.398Z,63.9
2017-08-04T02:48:41.787Z,63.6
2017-08-04T02:49:43.181Z,63.1
2017-08-04T02:50:44.551Z,62.9
2017-08-04T02:51:45.927Z,63.1
2017-08-04T02:52:47.307Z,64.0
2017-08-04T02:53:48.708Z,63.5
2017-08-04T02:54:50.097Z,63.7
2017-08-04T02:55:51.469Z,64.1
2017-08-04T02:56:52.856Z,63.5
2017-08-04T02:57:54.225Z,64.0
2017-08-04T02:58:55.631Z,63.6
2017-08-04T02:59:56.995Z,63.8
2017-08-04T03:00:58.381Z,64.3
2017-08-04T03:01:59.758Z,64.5
2017-08-04T03:03:01.136Z,64.6
2017-08-04T03:04:02.580Z,64.6
2017-08-04T03:05:04.016Z,64.5
2017-08-04T03:06:05.418Z,64.5
2017-08-04T03:07:06.811Z,64.9
2017-08-04T03:08:08.213Z,64.6
2017-08-04T03:09:09.588Z,64.5
2017-08-04T03:10:10.968Z,64.8
2017-08-04T03:11:12.349Z,64.0
2017-08-04T03:12:13.810Z,64.7
2017-08-04T03:13:15.199Z,63.9
2017-08-04T03:14:16.576Z,63.9
2017-08-04T03:15:17.982Z,63.5
2017-08-04T03:16:19.451Z,64.0
2017-08-04T03:17:20.832Z,63.6
2017-08-04T03:18:22.214Z,63.9
2017-08-04T03:20:03.619Z,63.9
2017-08-04T03:21:04.971Z,63.7
2017-08-04T03:22:06.347Z,63.6
2017-08-04T03:23:07.732Z,63.9
2017-08-04T03:24:09.124Z,63.8
2017-08-04T03:25:10.534Z,63.0
2017-08-04T03:26:11.886Z,63.9
2017-08-04T03:27:13.265Z,63.2
2017-08-04T03:28:14.648Z,63.5
2017-08-04T03:29:16.044Z,63.5
2017-08-04T03:30:17.482Z,63.9
2017-08-04T03:31:18.916Z,63.8
2017-08-04T03:32:20.316Z,63.5
2017-08-04T03:33:21.788Z,63.3
2017-08-04T03:34:23.219Z,63.4
2017-08-04T03:35:24.603Z,63.9
2017-08-04T03:36:25.987Z,63.6
2017-08-04T03:37:27.370Z,63.8
2017-08-04T03:38:28.828Z,64.0
2017-08-04T03:39:30.215Z,63.9
2017-08-04T03:40:31.610Z,63.4
2017-08-04T03:41:33.047Z,63.9
2017-08-04T03:42:34.432Z,63.5
2017-08-04T03:44:16.801Z,64.2
2017-08-04T03:45:18.180Z,63.6
2017-08-04T03:46:19.558Z,63.9
2017-08-04T03:47:20.940Z,63.5
2017-08-04T03:48:22.313Z,64.0
2017-08-04T03:49:23.729Z,63.5
2017-08-04T03:50:25.156Z,64.1
2017-08-04T03:51:26.536Z,63.9
2017-08-04T03:52:27.997Z,64.6
2017-08-04T03:53:29.370Z,64.4
2017-08-04T03:54:30.748Z,64.4
2017-08-04T03:55:32.134Z,64.8
2017-08-04T03:56:33.592Z,64.4
2017-08-04T03:57:34.981Z,64.7
2017-08-04T03:58:36.411Z,64.6
2017-08-04T03:59:37.825Z,63.8
2017-08-04T04:00:39.290Z,63.5
2017-08-04T04:01:40.672Z,64.2
2017-08-04T04:02:42.087Z,63.5
2017-08-04T04:03:43.521Z,64.2
2017-08-04T04:04:44.973Z,63.5
2017-08-04T04:05:46.413Z,64.1
2017-08-04T04:06:47.824Z,63.8
2017-08-04T04:07:49.214Z,63.8
2017-08-04T04:08:50.670Z,63.4
2017-08-04T04:09:52.123Z,63.0
2017-08-04T04:10:53.566Z,63.3
2017-08-04T04:11:54.957Z,64.2
2017-08-04T04:12:56.354Z,63.5
2017-08-04T04:13:57.734Z,63.6
2017-08-04T04:14:59.136Z,63.6
2017-08-04T04:16:00.555Z,62.9
2017-08-04T04:17:01.975Z,63.4
2017-08-04T04:18:03.427Z,63.3
2017-08-04T04:19:04.803Z,63.1
2017-08-04T04:20:06.198Z,62.9
2017-08-04T04:21:07.619Z,63.1
2017-08-04T04:22:09.041Z,62.9
2017-08-04T04:23:10.461Z,62.9
2017-08-04T04:24:52.840Z,62.2
2017-08-04T04:25:54.223Z,62.8
2017-08-04T04:26:55.604Z,62.7
2017-08-04T04:27:56.995Z,62.2
2017-08-04T04:28:58.386Z,62.6
2017-08-04T04:29:59.784Z,62.7
2017-08-04T04:31:01.167Z,62.3
2017-08-04T04:32:02.551Z,63.3
2017-08-04T04:33:03.934Z,62.2
2017-08-04T04:34:05.315Z,62.2
2017-08-04T04:35:06.702Z,62.1
2017-08-04T04:36:08.093Z,61.7
2017-08-04T04:37:09.474Z,61.8
2017-08-04T04:38:10.858Z,61.6
2017-08-04T04:39:12.245Z,61.7
2017-08-04T04:40:13.666Z,61.1
2017-08-04T04:41:15.047Z,61.5
2017-08-04T04:42:16.435Z,61.5
2017-08-04T04:43:17.817Z,61.0
2017-08-04T04:44:19.201Z,60.8
2017-08-04T04:45:20.590Z,61.9
2017-08-04T04:46:21.983Z,61.2
2017-08-04T04:47:23.406Z,60.3
2017-08-04T04:48:24.779Z,61.6
2017-08-04T04:49:26.171Z,60.8
2017-08-04T04:50:27.552Z,61.5
2017-08-04T04:51:28.943Z,61.1
2017-08-04T04:52:30.337Z,60.6
2017-08-04T04:53:31.721Z,61.2
2017-08-04T04:54:33.105Z,61.0
2017-08-04T04:55:34.486Z,60.9
2017-08-04T04:56:35.875Z,61.6
2017-08-04T04:57:37.263Z,60.8
2017-08-04T04:58:38.660Z,61.4
2017-08-04T04:59:40.062Z,60.8
2017-08-04T05:00:41.439Z,60.7
2017-08-04T05:01:42.831Z,60.5
2017-08-04T05:02:44.220Z,60.6
2017-08-04T05:03:46.194Z,60.3
2017-08-04T05:04:48.356Z,60.7
2017-08-04T05:05:50.490Z,60.4
2017-08-04T05:06:52.130Z,60.9
2017-08-04T05:07:53.946Z,60.8
2017-08-04T05:08:56.211Z,60.2
2017-08-04T05:09:57.625Z,60.3
2017-08-04T05:10:59.061Z,60.6
2017-08-04T05:12:00.449Z,59.5
2017-08-04T05:13:01.832Z,60.4
2017-08-04T05:14:03.215Z,60.5
2017-08-04T05:15:04.602Z,59.4
2017-08-04T05:16:05.984Z,59.6
2017-08-04T05:17:07.372Z,59.4
2017-08-04T05:18:08.759Z,59.6
2017-08-04T05:19:10.144Z,59.6
2017-08-04T05:20:11.814Z,60.3
2017-08-04T05:21:14.026Z,60.4
2017-08-04T05:22:16.100Z,60.0
2017-08-04T05:23:18.491Z,59.5
2017-08-04T05:24:19.891Z,60.2
2017-08-04T05:25:21.284Z,60.4
2017-08-04T05:26:22.668Z,60.5
2017-08-04T05:27:24.070Z,60.1
2017-08-04T05:28:25.458Z,60.3
2017-08-04T05:29:26.847Z,60.1
2017-08-04T05:30:28.419Z,60.3
2017-08-04T05:31:29.829Z,60.4
2017-08-04T05:32:31.256Z,60.4
2017-08-04T05:33:32.712Z,60.0
2017-08-04T05:34:34.153Z,60.3
2017-08-04T05:35:35.780Z,60.5
2017-08-04T05:37:18.164Z,59.3
2017-08-04T05:38:19.545Z,59.2
2017-08-04T05:39:20.927Z,59.5
2017-08-04T05:40:22.312Z,59.9
2017-08-04T05:41:23.698Z,60.5
2017-08-04T05:42:25.096Z,60.4
2017-08-04T05:43:26.488Z,59.8
2017-08-04T05:44:27.876Z,59.1
2017-08-04T05:45:29.266Z,59.6
2017-08-04T05:46:30.651Z,58.8
2017-08-04T05:47:32.732Z,59.3
2017-08-04T05:48:34.595Z,58.6
2017-08-04T05:49:36.394Z,59.4
2017-08-04T05:50:38.693Z,59.2
2017-08-04T05:51:40.194Z,58.7
2017-08-04T05:52:42.440Z,59.1
2017-08-04T05:53:44.776Z,59.2
2017-08-04T05:54:46.226Z,60.3
2017-08-04T05:55:47.615Z,59.2
2017-08-04T05:56:49.001Z,59.8
2017-08-04T05:57:50.416Z,59.0
2017-08-04T05:58:52.692Z,59.6
2017-08-04T05:59:54.462Z,59.7
2017-08-04T06:00:55.856Z,59.7
2017-08-04T06:01:57.292Z,60.2
2017-08-04T06:02:58.840Z,60.4
2017-08-04T06:04:00.530Z,59.3
2017-08-04T06:05:01.960Z,60.3
2017-08-04T06:06:03.328Z,59.9
2017-08-04T06:07:04.780Z,59.9
2017-08-04T06:08:06.329Z,59.9
2017-08-04T06:09:07.714Z,60.4
2017-08-04T06:10:09.180Z,60.2
2017-08-04T06:11:10.592Z,60.5
2017-08-04T06:12:12.016Z,59.2
2017-08-04T06:13:13.411Z,59.3
2017-08-04T06:14:14.803Z,59.6
2017-08-04T06:15:57.187Z,59.1
2017-08-04T06:16:58.963Z,59.2
2017-08-04T06:18:00.311Z,59.7
2017-08-04T06:19:01.695Z,58.4
2017-08-04T06:20:03.468Z,58.7
2017-08-04T06:21:04.801Z,59.2
2017-08-04T06:22:06.208Z,58.6
2017-08-04T06:23:07.592Z,59.5
2017-08-04T06:24:08.998Z,59.0
2017-08-04T06:25:10.385Z,58.4
2017-08-04T06:26:11.772Z,58.7
2017-08-04T06:27:13.160Z,58.2
2017-08-04T06:28:14.781Z,57.3
2017-08-04T06:29:16.270Z,57.8
2017-08-04T06:30:18.451Z,56.9
2017-08-04T06:31:20.127Z,57.2
2017-08-04T06:32:21.515Z,57.0
2017-08-04T06:33:22.934Z,56.7
2017-08-04T06:34:24.565Z,56.8
2017-08-04T06:35:25.980Z,56.4
2017-08-04T06:36:27.446Z,56.2
2017-08-04T06:37:29.133Z,56.8
2017-08-04T06:38:30.841Z,56.3
2017-08-04T06:39:32.305Z,56.2
2017-08-04T06:41:14.684Z,56.8
2017-08-04T06:42:16.068Z,56.9
2017-08-04T06:43:17.453Z,56.9
2017-08-04T06:44:18.843Z,57.8
2017-08-04T06:45:20.236Z,57.4
2017-08-04T06:46:21.620Z,57.5
2017-08-04T06:47:23.008Z,57.1
2017-08-04T06:48:24.395Z,57.3
2017-08-04T06:49:25.797Z,56.5
2017-08-04T06:50:27.169Z,56.7
2017-08-04T06:51:28.587Z,57.0
2017-08-04T06:52:29.957Z,57.5
2017-08-04T06:53:31.343Z,57.1
2017-08-04T06:54:32.741Z,57.3
2017-08-04T06:55:34.123Z,56.8
2017-08-04T06:56:35.511Z,56.2
2017-08-04T06:57:36.898Z,56.7
2017-08-04T06:58:38.286Z,55.9
2017-08-04T06:59:39.679Z,56.2
2017-08-04T07:00:41.071Z,56.4
2017-08-04T07:01:42.466Z,56.4
2017-08-04T07:02:43.852Z,56.7
2017-08-04T07:03:45.241Z,54.6
2017-08-04T07:04:46.629Z,54.2
2017-08-04T07:05:48.020Z,54.7
2017-08-04T07:06:49.407Z,55.1
2017-08-04T07:07:51.146Z,54.2
2017-08-04T07:08:52.537Z,52.8
2017-08-04T07:09:53.939Z,52.0
2017-08-04T07:10:55.331Z,52.7
2017-08-04T07:11:56.714Z,53.0
2017-08-04T07:12:58.105Z,52.0
2017-08-04T07:13:59.510Z,50.5
2017-08-04T07:15:00.900Z,50.9
2017-08-04T07:16:02.291Z,49.5
2017-08-04T07:17:03.719Z,49.2
2017-08-04T07:18:05.101Z,47.7
2017-08-04T07:19:06.497Z,49.4
2017-08-04T07:20:08.339Z,49.5
2017-08-04T07:21:09.707Z,49.7
2017-08-04T07:22:11.123Z,49.5
2017-08-04T07:23:12.516Z,49.6
2017-08-04T07:24:13.985Z,48.6
2017-08-04T07:25:15.420Z,48.2
2017-08-04T07:26:16.832Z,47.8
2017-08-04T07:27:18.223Z,47.3
2017-08-04T07:28:19.629Z,47.2
2017-08-04T07:29:21.016Z,46.4
2017-08-04T07:30:22.416Z,47.1
2017-08-04T07:31:23.916Z,47.8
2017-08-04T07:32:25.298Z,46.9
2017-08-04T07:33:26.758Z,47.7
2017-08-04T07:34:28.143Z,48.3
2017-08-04T07:35:29.540Z,48.6
2017-08-04T07:36:30.930Z,47.3
2017-08-04T07:37:32.324Z,47.3
2017-08-04T07:38:33.780Z,48.1
2017-08-04T07:39:35.167Z,47.4
2017-08-04T07:40:36.555Z,48.0
2017-08-04T07:41:37.950Z,47.8
2017-08-04T07:42:39.368Z,48.5
2017-08-04T07:43:40.767Z,48.1
2017-08-04T07:44:42.184Z,48.2
2017-08-04T07:45:43.638Z,48.5
2017-08-04T07:46:45.038Z,48.3
2017-08-04T07:47:46.429Z,47.5
2017-08-04T07:48:47.840Z,47.0
2017-08-04T07:49:49.252Z,46.9
2017-08-04T07:50:50.644Z,47.1
2017-08-04T07:51:52.038Z,47.6
2017-08-04T07:52:53.430Z,47.2
2017-08-04T07:53:54.818Z,48.1
2017-08-04T07:54:56.216Z,47.7
2017-08-04T07:55:57.697Z,48.5
2017-08-04T07:57:40.137Z,48.3
2017-08-04T07:58:41.529Z,47.5
2017-08-04T07:59:42.917Z,48.2
2017-08-04T08:00:44.338Z,47.5
2017-08-04T08:01:45.723Z,47.7
2017-08-04T08:02:47.122Z,47.5
2017-08-04T08:03:48.514Z,48.5
2017-08-04T08:04:49.905Z,48.2
2017-08-04T08:05:51.295Z,49.1
2017-08-04T08:06:52.691Z,48.0
2017-08-04T08:07:54.112Z,47.8
2017-08-04T08:08:55.508Z,47.5
2017-08-04T08:09:56.894Z,47.2
2017-08-04T08:10:58.297Z,46.1
2017-08-04T08:11:59.686Z,46.2
2017-08-04T08:13:01.075Z,46.4
2017-08-04T08:14:43.458Z,43.9
2017-08-04T08:15:44.877Z,44.3
2017-08-04T08:16:46.247Z,43.4
2017-08-04T08:17:47.636Z,42.1
2017-08-04T08:18:49.033Z,42.1
2017-08-04T08:19:50.430Z,43.1
2017-08-04T08:20:51.825Z,42.9
2017-08-04T08:21:53.222Z,43.0
2017-08-04T08:22:54.610Z,44.1
2017-08-04T08:23:56.010Z,43.3
2017-08-04T08:24:57.406Z,44.4
2017-08-04T08:26:39.918Z,43.0
2017-08-04T08:27:41.368Z,44.2
2017-08-04T08:28:42.800Z,43.9
2017-08-04T08:29:44.173Z,43.0
2017-08-04T08:30:45.659Z,42.8
2017-08-04T08:31:47.058Z,43.2
2017-08-04T08:32:48.452Z,43.3
2017-08-04T08:33:49.846Z,42.3
2017-08-04T08:34:51.517Z,42.3
2017-08-04T08:35:53.175Z,43.1
2017-08-04T08:36:54.798Z,43.5
2017-08-04T08:37:56.228Z,43.9
2017-08-04T08:38:57.617Z,44.1
2017-08-04T08:39:59.013Z,42.6
2017-08-04T08:41:00.410Z,43.5
2017-08-04T08:42:01.801Z,43.6
2017-08-04T08:43:04.455Z,42.6
2017-08-04T08:44:05.950Z,44.1
2017-08-04T08:45:07.369Z,44.2
2017-08-04T08:46:08.819Z,42.7
2017-08-04T08:47:10.835Z,42.6
2017-08-04T08:48:12.230Z,42.4
2017-08-04T08:49:14.309Z,43.1
2017-08-04T08:50:15.766Z,43.0
2017-08-04T08:51:17.227Z,42.1
2017-08-04T08:52:18.624Z,41.2
2017-08-04T08:53:20.042Z,40.3
2017-08-04T08:54:21.437Z,40.9
2017-08-04T08:55:22.832Z,41.1
2017-08-04T08:56:24.326Z,41.4
2017-08-04T08:57:25.732Z,41.1
2017-08-04T08:58:27.125Z,41.1
2017-08-04T08:59:28.570Z,40.3
2017-08-04T09:00:30.020Z,39.0
2017-08-04T09:01:31.464Z,41.2
2017-08-04T09:02:32.859Z,40.1
2017-08-04T09:03:34.293Z,40.1
2017-08-04T09:04:35.691Z,39.5
2017-08-04T09:05:37.089Z,39.1
2017-08-04T09:06:38.499Z,39.0
2017-08-04T09:07:39.909Z,40.1
2017-08-04T09:08:41.310Z,40.0
2017-08-04T09:09:42.748Z,40.3
2017-08-04T09:10:44.459Z,40.7
2017-08-04T09:11:45.903Z,39.4
2017-08-04T09:12:47.724Z,39.5
2017-08-04T09:13:49.368Z,38.9
2017-08-04T09:14:50.752Z,38.5
2017-08-04T09:15:52.156Z,38.8
2017-08-04T09:16:53.583Z,40.1
2017-08-04T09:17:55.078Z,39.0
2017-08-04T09:18:57.224Z,39.3
2017-08-04T09:19:59.481Z,39.0
2017-08-04T09:21:01.481Z,40.6
2017-08-04T09:22:02.906Z,40.0
2017-08-04T09:23:04.461Z,38.6
2017-08-04T09:24:05.870Z,39.0
2017-08-04T09:25:07.268Z,39.4
2017-08-04T09:26:08.702Z,38.9
2017-08-04T09:27:10.111Z,39.0
2017-08-04T09:28:11.504Z,38.2
2017-08-04T09:29:12.931Z,38.7
2017-08-04T09:30:14.465Z,38.6
2017-08-04T09:31:15.869Z,39.1
2017-08-04T09:32:17.311Z,37.9
2017-08-04T09:33:18.738Z,38.5
2017-08-04T09:34:20.215Z,38.1
2017-08-04T09:35:21.629Z,36.8
2017-08-04T09:36:23.059Z,36.5
2017-08-04T09:37:24.473Z,36.3
2017-08-04T09:38:25.868Z,35.7
2017-08-04T09:39:27.273Z,36.5
2017-08-04T09:40:28.713Z,34.3
2017-08-04T09:42:09.681Z,34.5
2017-08-04T09:43:11.468Z,33.7
2017-08-04T09:44:13.431Z,33.0
2017-08-04T09:45:14.843Z,34.4
2017-08-04T09:46:16.243Z,34.0
2017-08-04T09:47:17.643Z,34.2
2017-08-04T09:48:19.039Z,33.5
2017-08-04T09:49:20.447Z,34.7
2017-08-04T09:50:21.844Z,34.7
2017-08-04T09:51:23.243Z,33.8
2017-08-04T09:52:24.679Z,33.0
2017-08-04T09:53:26.081Z,33.2
2017-08-04T09:54:27.483Z,31.6
2017-08-04T09:55:28.880Z,32.2
2017-08-04T09:56:30.285Z,31.5
2017-08-04T09:57:31.682Z,31.7
2017-08-04T09:58:33.091Z,31.4
2017-08-04T09:59:34.492Z,32.3
2017-08-04T10:00:35.892Z,32.2
2017-08-04T10:01:37.295Z,33.3
2017-08-04T10:02:38.697Z,34.2
2017-08-04T10:03:40.100Z,33.7
2017-08-04T10:04:41.493Z,33.8
2017-08-04T10:05:42.903Z,34.8
2017-08-04T10:06:45.014Z,34.7
2017-08-04T10:07:46.399Z,35.5
2017-08-04T10:08:47.799Z,36.6
2017-08-04T10:09:49.209Z,34.9
2017-08-04T10:10:50.613Z,34.2
2017-08-04T10:11:52.011Z,36.3
2017-08-04T10:12:53.407Z,34.9
2017-08-04T10:13:54.829Z,34.4
2017-08-04T10:14:56.232Z,32.9
2017-08-04T10:15:57.632Z,34.1
2017-08-04T10:16:59.034Z,33.3
2017-08-04T10:18:00.439Z,33.5
2017-08-04T10:19:02.232Z,34.4
2017-08-04T10:20:03.561Z,35.3
2017-08-04T10:21:04.999Z,36.3
2017-08-04T10:22:06.440Z,36.5
2017-08-04T10:23:07.837Z,36.4
2017-08-04T10:24:09.324Z,36.7
2017-08-04T10:25:10.728Z,36.1
2017-08-04T10:26:12.134Z,38.0
2017-08-04T10:27:13.525Z,38.4
2017-08-04T10:28:14.946Z,38.5
2017-08-04T10:29:16.343Z,38.7
2017-08-04T10:30:18.191Z,37.3
2017-08-04T10:32:00.572Z,38.9
2017-08-04T10:33:01.964Z,39.8
2017-08-04T10:34:03.363Z,40.1
2017-08-04T10:35:04.746Z,39.4
2017-08-04T10:36:06.512Z,40.0
2017-08-04T10:37:07.907Z,40.6
2017-08-04T10:38:09.320Z,40.8
2017-08-04T10:39:10.719Z,41.0
2017-08-04T10:40:12.110Z,41.5
2017-08-04T10:41:13.507Z,41.9
2017-08-04T10:42:14.895Z,41.4
2017-08-04T10:43:16.291Z,42.0
2017-08-04T10:44:17.683Z,41.9
2017-08-04T10:45:19.280Z,41.8
2017-08-04T10:46:20.668Z,41.8
2017-08-04T10:47:22.989Z,41.5
2017-08-04T10:48:25.133Z,41.9
2017-08-04T10:49:27.410Z,41.6
2017-08-04T10:50:29.068Z,41.8
2017-08-04T10:51:30.782Z,41.8
2017-08-04T10:52:32.199Z,41.8
2017-08-04T10:53:34.357Z,41.6
2017-08-04T10:54:36.317Z,41.7
2017-08-04T10:55:37.704Z,41.7
2017-08-04T10:56:39.093Z,41.9
2017-08-04T10:57:40.490Z,41.8
2017-08-04T10:58:41.887Z,41.6
2017-08-04T10:59:43.284Z,40.7
2017-08-04T11:00:44.684Z,40.8
2017-08-04T11:01:46.078Z,40.6
2017-08-04T11:02:47.888Z,41.0
2017-08-04T11:03:49.684Z,40.7
2017-08-04T11:04:51.516Z,40.7
2017-08-04T11:05:52.927Z,40.4
2017-08-04T11:06:54.484Z,41.0
2017-08-04T11:07:55.877Z,41.8
2017-08-04T11:08:57.323Z,41.6
2017-08-04T11:10:38.709Z,41.2
2017-08-04T11:11:40.098Z,41.4
2017-08-04T11:13:03.123Z,40.8
2017-08-04T11:14:04.524Z,40.7
2017-08-04T11:15:05.927Z,41.1
2017-08-04T11:16:07.335Z,40.3
2017-08-04T11:17:08.737Z,40.5
2017-08-04T11:18:10.144Z,40.5
2017-08-04T11:19:11.533Z,40.1
2017-08-04T11:20:12.930Z,40.7
2017-08-04T11:21:14.320Z,40.1
2017-08-04T11:22:15.728Z,40.5
2017-08-04T11:23:17.128Z,40.9
2017-08-04T11:24:18.520Z,41.2
2017-08-04T11:25:19.919Z,40.8
2017-08-04T11:26:21.313Z,40.8
2017-08-04T11:27:22.716Z,40.9
2017-08-04T11:28:24.099Z,38.8
2017-08-04T11:29:25.494Z,39.1
2017-08-04T11:30:26.889Z,39.2
2017-08-04T11:31:28.282Z,38.7
2017-08-04T11:32:29.691Z,39.2
2017-08-04T11:33:31.084Z,39.6
2017-08-04T11:34:32.522Z,39.4
2017-08-04T11:35:33.916Z,39.0
2017-08-04T11:36:35.311Z,38.3
2017-08-04T11:37:36.707Z,38.6
2017-08-04T11:38:38.101Z,38.3
2017-08-04T11:39:39.548Z,37.7
2017-08-04T11:40:41.011Z,37.9
2017-08-04T11:41:42.410Z,36.2
2017-08-04T11:42:43.809Z,36.0
2017-08-04T11:43:45.395Z,34.4
2017-08-04T11:44:46.852Z,35.3
2017-08-04T11:45:48.255Z,35.8
2017-08-04T11:46:49.860Z,34.1
2017-08-04T11:48:32.252Z,34.6
2017-08-04T11:49:33.649Z,35.0
2017-08-04T11:50:35.311Z,34.6
2017-08-04T11:51:36.719Z,35.7
2017-08-04T11:52:38.143Z,36.4
2017-08-04T11:53:39.517Z,37.2
2017-08-04T11:54:40.924Z,35.6
2017-08-04T11:55:42.317Z,35.8
2017-08-04T11:56:43.717Z,35.3
2017-08-04T11:57:45.122Z,35.5
2017-08-04T11:58:46.517Z,36.1
2017-08-04T11:59:47.932Z,36.5
2017-08-04T12:00:49.326Z,38.0
2017-08-04T12:01:50.720Z,37.0
2017-08-04T12:03:32.119Z,38.0
2017-08-04T12:04:33.521Z,37.8
2017-08-04T12:05:56.542Z,38.4
2017-08-04T12:06:57.936Z,39.2
2017-08-04T12:07:59.331Z,39.1
2017-08-04T12:09:00.735Z,38.9
2017-08-04T12:10:02.132Z,38.6
2017-08-04T12:11:03.527Z,39.4
2017-08-04T12:12:04.967Z,40.1
2017-08-04T12:13:06.367Z,40.2
2017-08-04T12:14:07.763Z,40.6
2017-08-04T12:15:09.156Z,40.3
2017-08-04T12:16:10.550Z,40.2
2017-08-04T12:17:11.946Z,40.1
2017-08-04T12:18:13.341Z,40.8
2017-08-04T12:19:14.769Z,40.0
2017-08-04T12:20:16.164Z,40.1
2017-08-04T12:21:17.557Z,39.5
2017-08-04T12:22:18.949Z,38.5
2017-08-04T12:23:20.358Z,38.8
2017-08-04T12:24:21.750Z,38.3
2017-08-04T12:25:23.153Z,37.4
2017-08-04T12:26:24.568Z,36.4
2017-08-04T12:27:25.972Z,36.8
2017-08-04T12:28:27.370Z,36.3
2017-08-04T12:29:28.767Z,36.5
2017-08-04T12:30:30.160Z,37.6
2017-08-04T12:31:31.566Z,37.7
2017-08-04T12:32:32.951Z,36.5
2017-08-04T12:33:34.344Z,37.4
2017-08-04T12:34:35.748Z,37.7
2017-08-04T12:35:37.143Z,38.0
2017-08-04T12:36:38.540Z,38.8
2017-08-04T12:37:39.950Z,37.8
2017-08-04T12:38:41.342Z,37.9
2017-08-04T12:39:42.741Z,36.9
2017-08-04T12:40:44.141Z,37.3
2017-08-04T12:41:45.550Z,36.4
2017-08-04T12:42:46.950Z,36.3
2017-08-04T12:43:48.343Z,36.7
2017-08-04T12:44:49.741Z,35.4
2017-08-04T12:45:51.144Z,33.7
2017-08-04T12:46:52.546Z,33.9
2017-08-04T12:47:53.943Z,33.9
2017-08-04T12:48:55.356Z,32.4
2017-08-04T12:49:56.757Z,33.0
2017-08-04T12:50:58.150Z,31.4
2017-08-04T12:52:40.548Z,33.3
2017-08-04T12:53:41.951Z,32.3
2017-08-04T12:54:43.350Z,33.6
2017-08-04T12:55:44.749Z,33.9
2017-08-04T12:56:46.152Z,33.7
2017-08-04T12:57:47.550Z,33.3
2017-08-04T12:58:48.959Z,33.5
2017-08-04T12:59:50.367Z,34.2
2017-08-04T13:00:51.760Z,35.5
2017-08-04T13:01:53.161Z,34.2
2017-08-04T13:02:54.569Z,34.8
2017-08-04T13:03:55.958Z,35.7
2017-08-04T13:04:57.378Z,37.0
2017-08-04T13:05:58.756Z,38.0
2017-08-04T13:07:00.160Z,37.9
2017-08-04T13:08:42.543Z,38.3
2017-08-04T13:09:43.940Z,38.3
2017-08-04T13:10:45.356Z,39.2
2017-08-04T13:11:46.754Z,39.6
2017-08-04T13:12:48.153Z,40.8
2017-08-04T13:13:49.569Z,40.8
2017-08-04T13:14:50.964Z,41.2
2017-08-04T13:15:52.361Z,41.4
2017-08-04T13:16:53.754Z,41.1
2017-08-04T13:17:55.148Z,41.2
2017-08-04T13:18:56.548Z,40.2
2017-08-04T13:19:57.941Z,40.0
2017-08-04T13:20:59.339Z,38.0
2017-08-04T13:22:00.735Z,38.5
2017-08-04T13:23:02.129Z,38.9
2017-08-04T13:24:03.525Z,38.5
2017-08-04T13:25:04.917Z,37.0
2017-08-04T13:26:06.318Z,36.5
2017-08-04T13:27:07.717Z,37.6
2017-08-04T13:28:09.118Z,37.6
2017-08-04T13:29:10.517Z,37.7
2017-08-04T13:30:11.917Z,38.0
2017-08-04T13:31:13.312Z,37.7
2017-08-04T13:32:55.708Z,37.7
2017-08-04T13:33:57.104Z,38.2
2017-08-04T13:34:58.500Z,38.5
2017-08-04T13:35:59.898Z,38.1
2017-08-04T13:37:01.295Z,38.5
2017-08-04T13:38:02.695Z,39.1
2017-08-04T13:39:04.092Z,39.6
2017-08-04T13:40:05.496Z,39.0
2017-08-04T13:41:06.891Z,38.8
2017-08-04T13:42:08.284Z,40.7
2017-08-04T13:43:09.691Z,40.3
2017-08-04T13:44:11.075Z,41.4
2017-08-04T13:45:12.471Z,41.7
2017-08-04T13:46:13.865Z,41.4
2017-08-04T13:47:15.265Z,42.0
2017-08-04T13:48:16.656Z,42.2
2017-08-04T13:49:18.052Z,42.1
2017-08-04T13:50:19.444Z,41.8
2017-08-04T13:51:20.839Z,41.0
2017-08-04T13:52:22.238Z,41.2
2017-08-04T13:53:23.635Z,40.3
2017-08-04T13:54:25.034Z,39.7
2017-08-04T13:55:26.427Z,40.1
2017-08-04T13:56:27.819Z,39.8
2017-08-04T13:57:29.215Z,39.2
2017-08-04T13:58:30.610Z,39.8